Impacts METAR Board
IDs:

KRWV - Caldwell Muni, TX, US

Updated at: 0900 UTC 13 Aug 2022
Potential Impact None Slight Moderate High
Time 12/21Z 12/22Z 12/23Z 13/00Z 13/01Z 13/02Z 13/03Z 13/04Z 13/05Z 13/06Z 13/07Z 13/08Z 13/09Z
Temp99 99 95 92 87 84 82 81 79 78 78 76 76
Dewpt67 65 68 68 70 71 72 72 72 72 72 72 72
Altim29.93 29.92 29.92 29.93 29.94 29.95 29.97 29.99 29.99 30.00 29.99 29.99 29.99
VIS10 10 10 10 10 10 10 10 10 10 10 10 10
CIG-- 120 95 -- -- -- -- -- -- -- -- -- --
CoverSCTBKNBKNSCTCLRCLRCLRCLRCLRCLRCLRSCTSCT
FltCatVFRVFRVFRVFRVFRVFRVFRVFRVFRVFRVFRVFRVFR
WX--------------------------
WDir6050901101300000000350
WSpd3 9 8 9 6 0 0 0 0 0 0 0 4
WGst18 -- 15 -- -- -- -- -- -- -- -- -- --
Raw hourly METARs
KRWV 122055Z AUTO 06003G18KT 10SM SCT100 37/19 A2993 RMK AO2 T03740192
KRWV 122155Z AUTO 05009KT 10SM SCT070 SCT080 BKN120 37/19 A2992 RMK AO2 LTG DSNT SE T03710186
KRWV 122255Z AUTO 09008G15KT 10SM SCT075 BKN095 35/20 A2992 RMK AO2 LTG DSNT E AND SE T03500201
KRWV 122355Z AUTO 11009KT 10SM SCT100 33/20 A2993 RMK AO2 T03330202 10386 20320 403860246
KRWV 130055Z AUTO 13006KT 10SM CLR 30/21 A2994 RMK AO2 T03040212
KRWV 130155Z AUTO 00000KT 10SM CLR 29/22 A2995 RMK AO2 T02870219
KRWV 130255Z AUTO 00000KT 10SM CLR 28/22 A2997 RMK AO2 T02780220
KRWV 130355Z AUTO 00000KT 10SM CLR 27/22 A2999 RMK AO2 T02700222
KRWV 130455Z AUTO 00000KT 10SM CLR 26/22 A2999 RMK AO2 T02620222
KRWV 130555Z AUTO 00000KT 10SM CLR 25/22 A3000 RMK AO2 T02550220 10332 20254
KRWV 130655Z AUTO 00000KT 10SM CLR 25/22 A2999 RMK AO2 T02540223
KRWV 130755Z AUTO 00000KT 10SM SCT047 25/22 A2999 RMK AO2 T02460223
KRWV 130855Z AUTO 35004KT 10SM SCT048 25/22 A2999 RMK AO2 T02460224